Time;durP1;ratioP1;P1;durP2;ratioP2;P2;SDS_P1;SDS_P2;PMS_P1;PMS_P2;Temp;Humidity;BMP_temperature;BMP_pressure;BME280_temperature;BME280_humidity;BME280_pressure;Samples;Min_cycle;Max_cycle;Signal;HPM_P1;HPM_P2
2023/06/21 00:00:39;;;;;;;32.58;25.70;;;18.20;99.90;;;17.32;100.00;100822.13;4900852;29;20032;-76
2023/06/21 00:03:05;;;;;;;41.30;31.35;;;18.20;99.90;;;17.28;100.00;100810.88;4898143;29;20040;-76
2023/06/21 00:05:32;;;;;;;40.42;30.25;;;18.10;99.90;;;17.28;100.00;100813.56;4877888;29;20079;-76
2023/06/21 00:07:58;;;;;;;53.13;37.67;;;18.10;99.90;;;17.30;100.00;100811.63;4874926;29;20048;-76
2023/06/21 00:10:28;;;;;;;50.70;37.47;;;18.10;99.90;;;17.31;100.00;100804.50;4899550;29;20040;-76
2023/06/21 00:12:54;;;;;;;62.35;40.53;;;18.10;99.90;;;17.32;100.00;100809.72;4889733;29;20112;-76
2023/06/21 00:15:21;;;;;;;51.88;36.85;;;18.10;99.90;;;17.33;100.00;100802.56;4856100;29;20560;-76
2023/06/21 00:17:50;;;;;;;38.10;29.33;;;18.10;99.90;;;17.32;100.00;100804.38;4899774;29;20044;-76
2023/06/21 00:20:16;;;;;;;51.42;40.53;;;18.10;99.90;;;17.30;100.00;100805.44;4898013;29;20024;-76
2023/06/21 00:22:45;;;;;;;45.45;33.30;;;18.10;99.90;;;17.27;100.00;100803.84;4884365;29;20031;-76
2023/06/21 00:25:13;;;;;;;35.28;29.73;;;18.10;99.90;;;17.23;100.00;100799.72;4893504;29;20509;-76
2023/06/21 00:27:42;;;;;;;29.08;26.08;;;18.10;99.90;;;17.19;100.00;100801.78;4895058;28;20099;-76
2023/06/21 00:30:08;;;;;;;46.63;38.35;;;18.00;99.90;;;17.18;100.00;100791.22;4860637;29;20044;-76
2023/06/21 00:32:34;;;;;;;33.97;29.67;;;18.00;99.90;;;17.15;100.00;100791.47;4902384;29;20028;-76
2023/06/21 00:35:00;;;;;;;57.33;41.05;;;18.00;99.90;;;17.17;100.00;100790.38;4876982;29;20772;-76
2023/06/21 00:37:26;;;;;;;53.15;41.67;;;18.00;99.90;;;17.19;100.00;100790.25;4896898;29;20044;-77
2023/06/21 00:39:52;;;;;;;64.03;48.97;;;18.00;99.90;;;17.20;100.00;100784.84;4909798;29;20036;-77
2023/06/21 00:42:18;;;;;;;70.07;51.05;;;18.10;99.90;;;17.23;100.00;100781.09;4902936;29;20509;-76
2023/06/21 00:44:46;;;;;;;47.30;35.00;;;18.10;99.90;;;17.26;100.00;100786.19;4880576;29;20059;-75
2023/06/21 00:47:12;;;;;;;58.58;45.70;;;18.10;99.90;;;17.29;100.00;100783.31;4918964;29;20416;-76
2023/06/21 00:49:38;;;;;;;48.33;39.42;;;18.10;99.90;;;17.29;100.00;100777.13;4889689;23;20044;-76
2023/06/21 00:52:05;;;;;;;44.03;37.95;;;18.10;99.90;;;17.29;100.00;100775.31;4893655;28;20054;-77
2023/06/21 00:54:34;;;;;;;70.40;54.15;;;18.10;99.90;;;17.31;100.00;100770.72;4895122;29;20493;-76
2023/06/21 00:57:07;;;;;;;89.35;64.75;;;18.20;99.90;;;17.38;100.00;100758.66;4887045;29;20162;-76
2023/06/21 00:59:33;;;;;;;90.25;66.80;;;18.20;99.90;;;17.50;100.00;100769.38;4897429;28;20439;-77
2023/06/21 01:02:03;;;;;;;99.57;71.93;;;18.30;99.90;;;17.61;100.00;100777.41;4851679;29;20040;-77
2023/06/21 01:04:33;;;;;;;104.78;77.07;;;18.40;99.90;;;17.70;100.00;100784.69;4875319;29;20127;-76
2023/06/21 01:07:20;;;;;;;82.05;60.58;;;18.50;99.90;;;17.77;100.00;100791.22;4873254;29;20052;-77
2023/06/21 01:10:19;;;;;;;106.70;72.53;;;18.60;99.90;;;17.80;100.00;100782.19;4878093;23;20075;-77
2023/06/21 01:13:21;;;;;;;93.35;67.53;;;18.60;99.90;;;17.81;100.00;100784.72;4904299;28;20559;-77
2023/06/21 01:16:01;;;;;;;50.60;43.25;;;18.60;99.90;;;17.80;100.00;100796.34;4922281;28;21631;-77
2023/06/21 01:18:29;;;;;;;73.82;52.67;;;18.60;99.90;;;17.76;100.00;100792.22;4935267;28;20245;-77
2023/06/21 01:20:57;;;;;;;41.60;34.67;;;18.60;99.90;;;17.69;100.00;100801.63;4884784;28;20122;-77
2023/06/21 01:23:28;;;;;;;44.28;38.10;;;18.50;99.90;;;17.67;100.00;100802.69;4914257;28;20043;-77
2023/06/21 01:26:24;;;;;;;61.15;45.40;;;18.50;99.90;;;17.64;100.00;100803.78;4903992;28;20045;-77
2023/06/21 01:29:13;;;;;;;28.73;25.55;;;;;;;17.56;100.00;100811.50;4922020;28;20400;-77
2023/06/21 01:31:42;;;;;;;39.88;31.80;;;18.40;99.90;;;17.51;100.00;100821.63;4906993;28;20055;-77
2023/06/21 01:34:12;;;;;;;41.30;36.78;;;18.40;99.90;;;17.51;100.00;100813.66;4905858;28;20046;-77
2023/06/21 01:36:39;;;;;;;79.18;52.83;;;18.30;99.90;;;17.49;100.00;100800.44;4903841;28;20048;-77
2023/06/21 01:39:09;;;;;;;86.80;61.15;;;18.30;99.90;;;17.51;100.00;100789.69;4877684;28;20039;-77
2023/06/21 01:41:38;;;;;;;77.75;57.65;;;18.40;99.90;;;17.52;100.00;100783.41;4882599;29;20527;-77
2023/06/21 01:44:09;;;;;;;84.68;62.42;;;18.40;99.90;;;17.56;100.00;100785.72;4911148;28;20047;-77
2023/06/21 01:46:36;;;;;;;107.55;76.63;;;18.50;99.90;;;17.65;100.00;100780.69;4909424;28;21504;-77
2023/06/21 01:49:06;;;;;;;141.98;90.68;;;18.50;99.90;;;17.72;100.00;100768.59;4891082;28;20039;-77
2023/06/21 01:51:36;;;;;;;119.40;80.80;;;18.50;99.90;;;17.76;100.00;100772.72;4913708;28;20092;-77
2023/06/21 01:54:03;;;;;;;93.13;67.25;;;18.60;99.90;;;17.80;100.00;100774.19;4916573;28;20055;-77
2023/06/21 01:56:32;;;;;;;52.85;41.25;;;18.60;99.90;;;17.76;100.00;100778.91;4908715;28;20059;-77
2023/06/21 01:58:59;;;;;;;87.18;46.30;;;18.50;99.90;;;17.63;100.00;100783.47;4916875;28;20149;-77
2023/06/21 02:01:27;;;;;;;39.30;35.00;;;18.40;99.90;;;17.51;100.00;100784.38;4884703;29;20038;-76
2023/06/21 02:04:03;;;;;;;77.55;53.67;;;18.30;99.90;;;17.37;100.00;100791.56;4898541;29;20044;-77
2023/06/21 02:06:31;;;;;;;59.75;46.72;;;18.20;99.90;;;17.24;100.00;100796.09;4899074;29;20500;-77
2023/06/21 02:09:00;;;;;;;51.22;43.30;;;18.10;99.90;;;17.17;100.00;100784.19;4914569;28;20040;-77
2023/06/21 02:11:32;;;;;;;77.72;56.97;;;18.10;99.90;;;17.17;100.00;100789.50;4897409;28;20040;-77
2023/06/21 02:13:58;;;;;;;81.20;61.20;;;18.00;99.90;;;17.16;100.00;100780.69;4904149;28;20055;-77
2023/06/21 02:16:31;;;;;;;62.75;50.90;;;18.00;99.90;;;17.20;100.00;100778.66;4877236;28;20121;-76
2023/06/21 02:18:57;;;;;;;63.22;49.75;;;18.00;99.90;;;17.25;100.00;100783.66;4909271;28;20040;-77
2023/06/21 02:21:23;;;;;;;128.52;76.03;;;18.10;99.90;;;17.30;100.00;100776.16;4903944;28;20051;-77
2023/06/21 02:23:49;;;;;;;120.72;77.18;;;18.10;99.90;;;17.35;100.00;100779.34;4872251;29;20032;-76
2023/06/21 02:26:16;;;;;;;161.18;84.03;;;18.10;99.90;;;17.37;100.00;100780.94;4903228;28;20035;-77
2023/06/21 02:28:41;;;;;;;59.22;49.20;;;18.20;99.90;;;17.41;100.00;100786.88;4896962;28;20950;-76
2023/06/21 02:31:10;;;;;;;148.25;73.53;;;18.20;99.90;;;17.44;100.00;100791.97;4904047;28;20039;-77
2023/06/21 02:33:38;;;;;;;348.98;132.02;;;18.30;99.90;;;17.47;100.00;100788.22;4896623;29;20040;-77
2023/06/21 02:36:05;;;;;;;364.90;103.60;;;18.20;99.90;;;17.49;100.00;100789.78;4909813;29;20525;-77
2023/06/21 02:38:31;;;;;;;127.15;71.35;;;18.30;99.90;;;17.50;100.00;100785.34;4896353;28;20040;-77
2023/06/21 02:40:58;;;;;;;99.80;66.50;;;18.30;99.90;;;17.51;100.00;100789.69;4896117;28;20377;-77
2023/06/21 02:43:24;;;;;;;110.57;68.57;;;18.30;99.90;;;17.50;100.00;100796.84;4912252;28;20075;-76
2023/06/21 02:45:57;;;;;;;53.17;44.85;;;18.30;99.90;;;17.50;100.00;100801.31;4893247;29;20040;-77
2023/06/21 02:48:23;;;;;;;54.95;45.38;;;18.30;99.90;;;17.48;100.00;100804.09;4889940;28;20440;-77
2023/06/21 02:50:49;;;;;;;59.95;47.30;;;18.30;99.90;;;17.50;100.00;100804.81;4906396;28;20032;-77
2023/06/21 02:53:14;;;;;;;;;;;18.30;99.90;;;17.42;100.00;100796.56;4894260;28;20065;-77
2023/06/21 02:55:41;;;;;;;99.13;64.20;;;18.20;99.90;;;17.42;100.00;100792.06;4907292;28;20327;-77
2023/06/21 02:58:07;;;;;;;70.35;50.47;;;18.30;99.90;;;17.47;100.00;100797.03;4904735;28;20485;-77
2023/06/21 03:00:33;;;;;;;57.05;43.53;;;18.20;99.90;;;17.48;100.00;100780.13;4894468;29;20143;-77
2023/06/21 03:03:00;;;;;;;35.80;31.27;;;18.30;99.90;;;17.51;100.00;100765.72;4922588;28;20032;-77
2023/06/21 03:05:29;;;;;;;57.08;47.80;;;18.30;99.90;;;17.56;100.00;100759.09;4893099;28;20213;-77
2023/06/21 03:07:59;;;;;;;88.00;66.70;;;18.30;99.90;;;17.62;100.00;100771.97;4918728;28;20043;-76
2023/06/21 03:10:25;;;;;;;79.15;63.38;;;18.40;99.90;;;17.72;100.00;100782.75;4897366;28;20047;-76
2023/06/21 03:12:50;;;;;;;58.40;46.75;;;18.50;99.90;;;17.79;100.00;100788.47;4866613;28;20106;-76
2023/06/21 03:15:16;;;;;;;;;;;18.50;99.90;;;17.83;100.00;100776.66;4912808;28;20036;-76
2023/06/21 03:17:42;;;;;;;39.97;32.63;;;18.60;99.90;;;17.83;100.00;100785.47;4897239;28;19921;-76
2023/06/21 03:20:12;;;;;;;45.10;39.00;;;18.60;99.90;;;17.85;100.00;100792.50;4904739;28;20070;-76
2023/06/21 03:22:45;;;;;;;49.17;37.90;;;18.60;99.90;;;17.88;100.00;100789.59;4896141;28;20040;-76
2023/06/21 03:25:14;;;;;;;39.83;33.28;;;18.60;99.90;;;17.90;100.00;100793.00;4897759;28;20079;-76
2023/06/21 03:27:40;;;;;;;41.95;33.92;;;18.70;99.90;;;17.90;100.00;100793.84;4913642;28;20051;-76
2023/06/21 03:30:11;;;;;;;42.08;35.00;;;18.70;99.90;;;17.92;100.00;100804.38;4893112;29;20622;-76
2023/06/21 03:32:48;;;;;;;54.10;38.92;;;18.70;99.90;;;17.96;100.00;100813.84;4881968;29;20462;-76
2023/06/21 03:35:15;;;;;;;48.22;38.65;;;18.70;99.90;;;17.96;100.00;100804.03;4897550;28;20052;-77
2023/06/21 03:37:42;;;;;;;52.22;41.00;;;18.70;99.90;;;17.96;100.00;100804.03;4895705;28;20066;-76
2023/06/21 03:40:13;;;;;;;40.47;35.35;;;18.70;99.90;;;17.99;100.00;100811.81;4903511;28;20073;-76
2023/06/21 03:42:42;;;;;;;44.90;37.25;;;18.80;99.90;;;18.02;100.00;100813.38;4902985;29;20700;-76
2023/06/21 03:45:09;;;;;;;53.03;39.42;;;18.80;99.90;;;18.02;100.00;100808.06;4911330;28;20028;-77
2023/06/21 03:47:41;;;;;;;35.55;31.48;;;18.80;99.90;;;18.04;100.00;100806.97;4878601;28;20035;-76
2023/06/21 03:50:08;;;;;;;52.28;41.83;;;18.80;99.90;;;18.04;100.00;100809.63;4874154;29;20361;-76
2023/06/21 03:52:34;;;;;;;50.75;39.03;;;18.80;99.90;;;18.05;100.00;100821.13;4903280;29;20722;-76
2023/06/21 03:55:01;;;;;;;84.07;63.63;;;18.80;99.90;;;18.07;100.00;100895.63;4887431;28;20042;-76
2023/06/21 03:57:27;;;;;;;109.03;75.78;;;18.90;99.90;;;18.05;100.00;100839.78;4907355;28;20083;-76
2023/06/21 03:59:53;;;;;;;92.03;73.80;;;18.90;99.90;;;18.17;100.00;100875.31;4878273;28;20067;-76
2023/06/21 04:02:20;;;;;;;;;;;19.00;99.90;;;18.23;100.00;100853.53;4902914;28;20039;-76
2023/06/21 04:04:48;;;;;;;90.18;70.38;;;19.10;99.90;;;18.31;100.00;100852.94;4907021;28;20243;-77
2023/06/21 04:07:17;;;;;;;100.25;72.07;;;19.20;99.90;;;18.42;100.00;100852.94;4879395;28;20045;-77
2023/06/21 04:09:43;;;;;;;98.20;72.28;;;19.30;99.90;;;18.50;100.00;100863.03;4880183;28;20747;-77
2023/06/21 04:12:09;;;;;;;98.47;75.45;;;19.30;99.90;;;18.57;100.00;100859.75;4905403;29;20063;-77
2023/06/21 04:14:35;;;;;;;101.68;76.40;;;19.40;99.90;;;18.64;100.00;100863.66;4908626;29;20497;-77
2023/06/21 04:17:03;;;;;;;105.80;75.72;;;19.50;99.90;;;18.70;100.00;100866.78;4907161;28;20098;-76
2023/06/21 04:19:29;;;;;;;107.13;75.15;;;19.50;99.90;;;18.73;100.00;100862.06;4906746;28;20039;-76
2023/06/21 04:21:55;;;;;;;104.95;75.70;;;19.50;99.90;;;18.78;100.00;100859.06;4905666;28;20085;-76
2023/06/21 04:24:21;;;;;;;111.50;76.18;;;19.60;99.90;;;18.85;100.00;100860.28;4879090;28;20508;-77
2023/06/21 04:26:48;;;;;;;113.80;76.38;;;19.60;99.90;;;18.88;100.00;100860.03;4922712;28;20035;-77
2023/06/21 04:29:16;;;;;;;114.40;75.88;;;19.70;99.90;;;18.92;100.00;100856.16;4910342;28;20063;-75
2023/06/21 04:31:45;;;;;;;125.53;81.35;;;19.70;99.90;;;18.96;100.00;100840.75;4897641;28;20062;-76
2023/06/21 04:34:11;;;;;;;139.55;87.18;;;19.70;99.90;;;19.00;100.00;100837.69;4898304;28;20068;-77
2023/06/21 04:36:37;;;;;;;122.57;83.80;;;19.80;99.90;;;19.04;100.00;100832.97;4909228;28;20042;-77
2023/06/21 04:39:06;;;;;;;123.10;82.55;;;19.80;99.90;;;19.10;100.00;100829.81;4907095;28;21137;-77
2023/06/21 04:41:36;;;;;;;117.30;83.10;;;19.80;99.90;;;19.14;100.00;100825.09;4908750;28;20055;-77
2023/06/21 04:44:02;;;;;;;140.77;89.03;;;19.90;99.90;;;19.19;100.00;100831.72;4900048;28;20039;-76
2023/06/21 04:46:28;;;;;;;128.98;84.20;;;19.90;99.90;;;19.17;100.00;100827.50;4901611;28;20213;-77
2023/06/21 04:48:53;;;;;;;114.88;77.68;;;20.00;99.90;;;19.23;100.00;100830.50;4891427;28;20032;-78
2023/06/21 04:51:19;;;;;;;;;;;20.00;99.90;;;19.26;100.00;100835.63;4886759;28;20495;-77
2023/06/21 04:53:45;;;;;;;95.40;72.68;;;20.00;99.90;;;19.29;100.00;100831.84;4932526;28;20280;-77
2023/06/21 04:56:12;;;;;;;105.28;74.40;;;20.10;99.90;;;19.37;100.00;100823.19;4885492;28;20054;-77
2023/06/21 04:58:41;;;;;;;86.75;65.88;;;20.10;99.90;;;19.45;100.00;100818.91;4904838;29;20094;-78
2023/06/21 05:01:07;;;;;;;95.22;69.88;;;20.20;99.90;;;19.55;100.00;100811.00;4892300;28;20102;-78
2023/06/21 05:03:33;;;;;;;89.55;66.20;;;20.30;99.90;;;19.67;100.00;100809.13;4886976;28;20043;-77
2023/06/21 05:06:00;;;;;;;83.68;62.30;;;20.40;99.90;;;19.75;100.00;100795.16;4894126;28;20048;-78
2023/06/21 05:08:34;;;;;;;80.75;63.28;;;20.50;99.90;;;19.76;100.00;100794.16;4892163;28;20051;-77
2023/06/21 05:11:00;;;;;;;73.20;58.70;;;20.50;99.90;;;19.86;100.00;100784.41;4873288;28;20040;-76
2023/06/21 05:13:25;;;;;;;68.78;56.05;;;20.60;99.90;;;19.94;100.00;100789.13;4891517;28;20431;-77
2023/06/21 05:15:51;;;;;;;65.63;55.53;;;20.60;99.90;;;20.00;100.00;100783.22;4921016;28;20416;-77
2023/06/21 05:18:17;;;;;;;;;;;20.70;99.90;;;19.99;100.00;100776.19;4903116;28;20127;-78
2023/06/21 05:20:43;;;;;;;81.45;60.92;;;20.70;99.90;;;19.97;100.00;100779.00;4885741;28;19921;-78
2023/06/21 05:23:11;;;;;;;74.18;57.45;;;20.70;99.90;;;20.06;100.00;100777.34;4910991;28;20126;-78
2023/06/21 05:25:39;;;;;;;72.15;58.50;;;20.80;99.90;;;20.13;100.00;100778.53;4901693;28;20035;-79
2023/06/21 05:28:05;;;;;;;70.47;57.00;;;20.80;99.90;;;20.22;100.00;100788.44;4905978;28;20043;-78
2023/06/21 05:30:30;;;;;;;73.70;56.13;;;20.90;99.90;;;20.32;100.00;100783.13;4905347;29;20165;-78
2023/06/21 05:32:56;;;;;;;66.55;54.13;;;21.00;99.90;;;20.55;100.00;100788.31;4905017;28;20489;-78
2023/06/21 05:35:22;;;;;;;57.72;49.58;;;21.20;99.90;;;20.83;100.00;100800.97;4914229;28;20046;-78
2023/06/21 05:37:54;;;;;;;58.78;49.15;;;21.40;99.90;;;21.25;100.00;100805.28;4861909;29;20523;-78
2023/06/21 05:40:20;;;;;;;61.95;51.50;;;21.90;99.90;;;22.10;100.00;100811.78;4852010;28;20047;-78
2023/06/21 05:42:46;;;;;;;51.63;45.40;;;22.30;99.90;;;22.23;100.00;100811.50;4896187;28;20028;-79
2023/06/21 05:45:12;;;;;;;57.22;48.08;;;22.50;99.90;;;22.28;100.00;100811.91;4878379;29;20549;-78
2023/06/21 05:47:38;;;;;;;;;;;22.50;99.90;;;22.24;100.00;100811.34;4901726;28;20036;-79
2023/06/21 05:50:07;;;;;;;54.33;42.78;;;22.70;99.90;;;22.13;100.00;100811.50;4880249;28;20629;-79
2023/06/21 05:52:33;;;;;;;46.92;41.92;;;22.70;99.90;;;22.10;100.00;100819.84;4869707;28;20428;-79
2023/06/21 05:54:59;;;;;;;46.40;40.17;;;;;;;22.10;100.00;100822.50;4888648;28;20047;-79
2023/06/21 05:57:26;;;;;;;39.67;34.80;;;22.60;99.90;;;22.05;100.00;100816.72;4900446;28;20048;-79
2023/06/21 05:59:53;;;;;;;39.47;31.75;;;22.60;99.90;;;22.00;100.00;100816.31;4895136;28;20145;-79
2023/06/21 06:02:19;;;;;;;34.03;30.42;;;22.50;99.90;;;21.96;100.00;100825.63;4888562;28;20552;-79
2023/06/21 06:04:49;;;;;;;34.63;30.92;;;22.50;99.90;;;21.93;100.00;100826.75;4895097;29;20054;-79
2023/06/21 06:07:15;;;;;;;33.40;28.65;;;22.50;99.90;;;21.89;100.00;100830.72;4877249;28;20043;-79
2023/06/21 06:09:42;;;;;;;32.08;28.63;;;22.50;99.90;;;21.89;100.00;100826.19;4887621;28;20046;-79
2023/06/21 06:12:08;;;;;;;36.28;27.30;;;22.50;99.90;;;21.88;100.00;100827.19;4879136;28;20040;-79
2023/06/21 06:14:34;;;;;;;34.47;27.83;;;22.50;99.90;;;21.91;100.00;100836.78;4886550;28;20040;-78
2023/06/21 06:17:07;;;;;;;26.85;23.08;;;22.50;99.90;;;21.94;100.00;100832.97;4849759;29;20139;-79
2023/06/21 06:19:33;;;;;;;27.92;23.20;;;22.50;99.90;;;21.96;100.00;100847.06;4889895;28;20492;-78
2023/06/21 06:21:59;;;;;;;23.52;21.10;;;22.50;99.90;;;21.96;100.00;100842.56;4923497;28;20062;-80
2023/06/21 06:24:25;;;;;;;24.75;19.95;;;22.60;99.90;;;21.92;100.00;100850.06;4894505;29;20099;-80
2023/06/21 06:26:51;;;;;;;19.83;17.73;;;22.50;99.90;;;21.90;100.00;100844.00;4883204;28;20039;-78
2023/06/21 06:29:24;;;;;;;20.00;16.63;;;22.50;99.90;;;21.89;100.00;100855.69;4915283;28;20050;-79
2023/06/21 06:31:51;;;;;;;24.30;16.25;;;22.50;99.90;;;21.87;100.00;100860.34;4857690;28;20041;-80
2023/06/21 06:34:17;;;;;;;20.50;16.23;;;22.50;99.90;;;21.92;100.00;100859.91;4894225;28;20050;-78
2023/06/21 06:36:51;;;;;;;24.05;17.50;;;22.60;99.90;;;21.95;100.00;100862.31;4883544;28;20773;-78
2023/06/21 06:39:16;;;;;;;18.58;16.67;;;22.50;99.90;;;22.00;100.00;100862.72;4885314;28;20044;-80
2023/06/21 06:41:42;;;;;;;21.58;16.05;;;22.60;99.90;;;22.09;100.00;100856.53;4884523;28;20650;-79
2023/06/21 06:44:08;;;;;;;23.75;16.48;;;22.70;99.90;;;22.20;100.00;100849.28;4883316;29;20118;-79
2023/06/21 06:46:34;;;;;;;22.73;16.38;;;22.80;99.90;;;22.35;100.00;100868.50;4913827;28;20123;-79
2023/06/21 06:49:02;;;;;;;20.15;16.42;;;22.90;99.90;;;22.44;99.29;100859.56;4892773;28;20513;-78
2023/06/21 06:51:30;;;;;;;18.80;15.60;;;23.00;99.90;;;22.63;98.65;100874.78;4899063;29;20094;-79
2023/06/21 06:53:56;;;;;;;14.82;11.90;;;23.10;99.90;;;22.78;96.82;100861.72;4890756;28;20046;-79
2023/06/21 06:56:22;;;;;;;13.02;11.40;;;23.30;99.90;;;23.08;94.54;100864.16;4892102;28;20126;-79
2023/06/21 06:58:48;;;;;;;15.00;10.82;;;23.60;99.90;;;23.69;91.57;100869.84;4895058;29;20047;-80
2023/06/21 07:01:15;;;;;;;13.07;9.23;;;24.00;99.90;;;24.12;88.54;100879.81;4901049;28;20599;-80
2023/06/21 07:03:40;;;;;;;12.85;10.07;;;24.40;99.90;;;24.67;85.88;100878.72;4891898;28;20047;-80
2023/06/21 07:06:14;;;;;;;13.80;9.10;;;25.00;99.90;;;25.74;80.72;100882.63;4859927;28;20036;-80
2023/06/21 07:08:44;;;;;;;11.75;8.38;;;25.70;99.90;;;26.16;77.88;100880.84;4916145;28;20043;-78
2023/06/21 07:11:14;;;;;;;12.18;8.25;;;26.30;99.90;;;27.26;74.96;100882.94;4864195;28;20063;-79
2023/06/21 07:13:40;;;;;;;8.95;7.55;;;27.20;99.90;;;28.34;70.74;100900.97;4881574;29;20068;-80
2023/06/21 07:16:06;;;;;;;7.72;6.70;;;28.10;99.90;;;28.56;68.74;100900.09;4892931;28;20127;-79
2023/06/21 07:18:33;;;;;;;13.57;8.32;;;28.40;99.90;;;28.58;69.10;100899.91;4876915;28;20544;-79
2023/06/21 07:20:59;;;;;;;8.95;7.25;;;;;;;28.64;67.95;100899.19;4884411;28;20594;-79
2023/06/21 07:23:31;;;;;;;12.57;7.80;;;28.60;99.90;;;28.49;68.27;100904.56;4896227;28;20039;-80
2023/06/21 07:25:56;;;;;;;13.35;7.75;;;28.60;99.90;;;28.39;69.34;100891.25;4870992;28;20084;-80
2023/06/21 07:28:23;;;;;;;8.32;6.28;;;28.60;99.90;;;28.62;68.31;100904.78;4877818;28;20039;-80
2023/06/21 07:30:48;;;;;;;9.40;6.05;;;28.70;99.90;;;28.71;67.55;100910.94;4888155;28;20036;-81
2023/06/21 07:33:14;;;;;;;5.95;5.05;;;28.80;99.90;;;28.65;67.67;100906.25;4906227;29;20050;-80
2023/06/21 07:35:45;;;;;;;7.57;5.22;;;28.80;99.90;;;28.71;67.79;100905.53;4891257;28;20075;-80
2023/06/21 07:38:10;;;;;;;5.10;4.60;;;29.00;99.90;;;29.18;66.72;100907.03;4917163;28;20035;-80
2023/06/21 07:40:37;;;;;;;8.13;4.47;;;29.30;99.90;;;29.60;66.05;100905.41;4929011;28;20077;-79
2023/06/21 07:43:05;;;;;;;6.50;4.35;;;29.70;99.90;;;30.08;65.14;100918.44;4878153;28;20693;-79
2023/06/21 07:45:31;;;;;;;10.63;3.55;;;30.00;99.90;;;30.15;64.31;100913.94;4868034;29;20071;-79
2023/06/21 07:48:05;;;;;;;7.55;3.58;;;30.10;99.90;;;29.93;63.93;100926.66;4885089;28;20075;-80
2023/06/21 07:50:31;;;;;;;6.03;3.30;;;29.90;99.90;;;29.57;65.23;100921.25;4913813;28;20047;-80
2023/06/21 07:52:59;;;;;;;7.43;3.40;;;29.70;99.90;;;29.19;65.97;100916.00;4898586;28;20031;-80
2023/06/21 07:55:28;;;;;;;6.85;4.18;;;29.40;99.90;;;28.70;66.65;100908.41;4879200;28;20040;-81
2023/06/21 07:58:01;;;;;;;7.55;4.50;;;28.90;99.90;;;28.12;67.87;100910.78;4878047;28;20621;-81
2023/06/21 08:00:27;;;;;;;5.93;4.35;;;28.60;99.90;;;28.04;69.09;100908.19;4884879;28;20122;-80
2023/06/21 08:02:53;;;;;;;6.70;4.25;;;28.50;99.90;;;28.21;68.97;100907.84;4888964;28;20556;-80
2023/06/21 08:05:20;;;;;;;6.22;4.05;;;28.50;99.90;;;28.45;68.00;100918.66;4904213;28;20234;-80
2023/06/21 08:07:51;;;;;;;6.47;4.40;;;28.60;99.90;;;28.34;67.43;100928.88;4896291;28;20552;-80
2023/06/21 08:10:17;;;;;;;7.10;4.03;;;28.50;99.90;;;28.06;68.50;100933.19;4953660;23;20055;-82
2023/06/21 08:12:43;;;;;;;10.88;3.50;;;28.30;99.90;;;27.78;69.59;100923.72;4922141;28;20037;-80
2023/06/21 08:15:09;;;;;;;11.73;3.88;;;28.10;99.90;;;27.52;69.82;100921.34;4933587;28;20447;-80
2023/06/21 08:17:35;;;;;;;6.63;3.85;;;27.80;99.90;;;27.25;70.57;100922.66;4911710;28;20031;-80
2023/06/21 08:20:03;;;;;;;8.13;4.10;;;27.70;99.90;;;27.22;70.45;100925.72;4917814;28;20095;-80
2023/06/21 08:22:32;;;;;;;7.38;3.97;;;27.60;99.90;;;27.25;70.87;100928.06;4879937;28;20035;-80
2023/06/21 08:24:58;;;;;;;5.05;3.80;;;27.60;99.90;;;27.34;70.78;100929.72;4929251;28;20118;-80
2023/06/21 08:27:26;;;;;;;7.40;4.00;;;27.70;99.90;;;27.38;70.71;100935.59;4878424;28;20639;-79
2023/06/21 08:29:52;;;;;;;8.45;3.40;;;27.60;99.90;;;27.29;70.64;100939.38;4912543;28;20042;-77
2023/06/21 08:32:24;;;;;;;6.55;3.78;;;27.70;99.90;;;27.28;70.40;100943.06;4910292;28;20058;-78
2023/06/21 08:34:52;;;;;;;6.00;3.80;;;27.70;99.90;;;27.20;70.10;100943.94;4894044;28;20050;-78
2023/06/21 08:37:24;;;;;;;4.78;3.97;;;27.60;99.90;;;27.26;70.07;100937.00;4912901;28;20040;-79
2023/06/21 08:39:55;;;;;;;5.72;4.40;;;27.60;99.90;;;27.24;69.27;100945.31;4924302;28;20097;-78
2023/06/21 08:42:23;;;;;;;6.40;4.30;;;27.70;99.90;;;27.55;68.76;100944.47;4903741;28;20055;-79
2023/06/21 08:44:52;;;;;;;8.48;4.45;;;27.90;99.90;;;27.89;67.82;100954.94;4932166;28;20397;-78
2023/06/21 08:47:22;;;;;;;7.43;4.47;;;28.10;99.90;;;28.02;67.57;100966.03;4884043;28;20031;-79
2023/06/21 08:49:49;;;;;;;8.93;4.32;;;28.20;99.90;;;28.01;67.29;100977.03;4917346;23;20041;-78
2023/06/21 08:52:24;;;;;;;7.80;4.30;;;28.30;99.90;;;28.06;67.71;100973.78;4879215;29;20044;-78
2023/06/21 08:55:02;;;;;;;10.13;5.15;;;28.20;99.90;;;27.88;67.48;100982.19;4879222;29;20051;-78
2023/06/21 08:57:32;;;;;;;5.55;4.90;;;28.10;99.90;;;27.74;67.49;100992.72;4844699;29;20108;-78
2023/06/21 09:00:06;;;;;;;5.85;4.45;;;28.00;99.90;;;27.54;68.01;100992.31;4865800;29;20403;-78
2023/06/21 09:02:47;;;;;;;4.75;4.28;;;27.90;99.90;;;27.34;68.14;100993.75;4862535;29;20052;-78
2023/06/21 09:05:23;;;;;;;6.15;4.90;;;27.70;99.90;;;27.26;69.10;100991.94;4874235;29;20536;-78
2023/06/21 09:07:53;;;;;;;11.15;4.88;;;27.60;99.90;;;27.07;69.09;101003.94;4859891;29;20033;-78
2023/06/21 09:10:21;;;;;;;6.50;4.63;;;27.50;99.90;;;27.10;69.70;101003.59;4855567;29;20056;-78
2023/06/21 09:13:01;;;;;;;5.43;4.90;;;27.50;99.90;;;27.24;68.99;101010.19;4850196;29;20036;-78
2023/06/21 09:15:32;;;;;;;6.57;4.70;;;27.60;99.90;;;27.34;68.98;101012.66;4871565;29;20537;-78
2023/06/21 09:18:02;;;;;;;9.88;4.70;;;27.70;99.90;;;27.54;68.77;101022.06;4871088;29;20040;-78
2023/06/21 09:20:32;;;;;;;6.35;4.90;;;27.80;99.90;;;27.79;68.76;101030.91;4871376;29;20655;-78
2023/06/21 09:23:01;;;;;;;8.20;4.40;;;28.00;99.90;;;27.99;68.27;101027.78;4857246;29;20434;-78
2023/06/21 09:25:30;;;;;;;8.02;5.30;;;28.10;99.90;;;27.86;68.45;101033.75;4848602;29;20032;-78
2023/06/21 09:27:59;;;;;;;12.07;5.47;;;28.00;99.90;;;27.53;68.52;101041.16;4871119;29;20333;-78
2023/06/21 09:30:25;;;;;;;6.30;4.95;;;28.00;99.90;;;27.61;69.13;101039.28;4839232;29;20070;-78
2023/06/21 09:33:01;;;;;;;7.35;4.88;;;28.00;99.90;;;27.82;68.33;101037.84;4858568;29;20032;-78
2023/06/21 09:35:30;;;;;;;8.25;5.10;;;28.20;99.90;;;27.92;67.01;101032.22;4858218;29;20029;-77
2023/06/21 09:37:57;;;;;;;7.70;5.22;;;28.30;99.90;;;28.04;67.69;101046.22;4838228;29;20048;-78
2023/06/21 09:40:26;;;;;;;8.27;5.70;;;28.30;99.90;;;27.97;67.92;101046.91;4831539;29;21012;-78
2023/06/21 09:42:56;;;;;;;7.00;5.13;;;28.30;99.90;;;28.13;67.80;101045.13;4858231;29;20044;-77
2023/06/21 09:45:25;;;;;;;6.63;5.35;;;28.40;99.90;;;28.28;67.20;101045.19;4873200;29;20044;-78
2023/06/21 09:47:56;;;;;;;6.13;5.53;;;28.30;99.90;;;27.56;67.46;101041.66;4852563;29;20030;-78
2023/06/21 09:50:22;;;;;;;8.43;5.95;;;28.10;99.90;;;27.36;69.35;101048.50;4834828;29;20051;-77
2023/06/21 09:52:48;;;;;;;6.70;5.45;;;28.00;99.90;;;27.36;69.83;101045.78;4849950;29;20032;-78
2023/06/21 09:55:22;;;;;;;8.88;5.45;;;27.90;99.90;;;27.33;69.39;101049.69;4868103;29;20045;-78
2023/06/21 09:57:52;;;;;;;8.57;6.05;;;27.70;99.90;;;27.25;69.18;101047.00;4876378;29;20040;-78
2023/06/21 10:00:19;;;;;;;6.43;5.47;;;27.80;99.90;;;27.55;69.53;101055.34;4872522;29;20044;-78
2023/06/21 10:02:59;;;;;;;8.05;5.43;;;27.90;99.90;;;27.78;68.53;101063.56;4849661;29;20036;-78
2023/06/21 10:05:30;;;;;;;9.20;6.07;;;27.90;99.90;;;27.39;69.07;101062.50;4865713;29;20048;-78